createdAt,value
2023-05-14T00:02:19.262Z,100.00
2023-05-14T00:04:46.757Z,100.00
2023-05-14T00:07:14.050Z,100.00
2023-05-14T00:09:41.304Z,100.00
2023-05-14T00:12:08.656Z,100.00
2023-05-14T00:14:36.004Z,100.00
2023-05-14T00:17:03.478Z,100.00
2023-05-14T00:19:30.846Z,100.00
2023-05-14T00:21:58.238Z,100.00
2023-05-14T00:24:25.662Z,100.00
2023-05-14T00:26:52.969Z,100.00
2023-05-14T00:29:20.260Z,100.00
2023-05-14T00:31:47.615Z,100.00
2023-05-14T00:34:14.886Z,100.00
2023-05-14T00:36:42.236Z,100.00
2023-05-14T00:39:09.556Z,100.00
2023-05-14T00:41:36.840Z,100.00
2023-05-14T00:44:04.250Z,100.00
2023-05-14T00:46:31.746Z,100.00
2023-05-14T00:49:01.043Z,100.00
2023-05-14T00:51:28.428Z,100.00
2023-05-14T00:53:55.858Z,100.00
2023-05-14T00:56:23.524Z,100.00
2023-05-14T00:58:51.134Z,100.00
2023-05-14T01:01:18.525Z,100.00
2023-05-14T01:03:46.168Z,100.00
2023-05-14T01:06:13.540Z,100.00
2023-05-14T01:08:53.732Z,100.00
2023-05-14T01:11:32.401Z,100.00
2023-05-14T01:14:03.877Z,100.00
2023-05-14T01:16:33.557Z,100.00
2023-05-14T01:19:02.492Z,100.00
2023-05-14T01:21:36.192Z,100.00
2023-05-14T01:24:03.634Z,100.00
2023-05-14T01:26:31.587Z,100.00
2023-05-14T01:29:11.168Z,100.00
2023-05-14T01:31:40.885Z,100.00
2023-05-14T01:34:09.393Z,100.00
2023-05-14T01:36:37.276Z,100.00
2023-05-14T01:39:04.854Z,100.00
2023-05-14T01:41:32.907Z,100.00
2023-05-14T01:44:01.430Z,100.00
2023-05-14T01:46:31.811Z,100.00
2023-05-14T01:48:59.590Z,100.00
2023-05-14T01:51:27.274Z,100.00
2023-05-14T01:53:54.583Z,100.00
2023-05-14T01:56:23.525Z,100.00
2023-05-14T01:58:50.814Z,100.00
2023-05-14T02:01:18.304Z,100.00
2023-05-14T02:03:46.254Z,100.00
2023-05-14T02:06:13.777Z,100.00
2023-05-14T02:08:41.158Z,100.00
2023-05-14T02:11:08.590Z,100.00
2023-05-14T02:13:36.300Z,100.00
2023-05-14T02:16:03.887Z,100.00
2023-05-14T02:18:31.383Z,100.00
2023-05-14T02:20:58.802Z,100.00
2023-05-14T02:23:37.710Z,100.00
2023-05-14T02:26:09.809Z,100.00
2023-05-14T02:28:37.202Z,100.00
2023-05-14T02:31:04.492Z,100.00
2023-05-14T02:33:31.954Z,100.00
2023-05-14T02:35:59.256Z,100.00
2023-05-14T02:38:26.839Z,100.00
2023-05-14T02:40:56.526Z,100.00
2023-05-14T02:43:23.887Z,100.00
2023-05-14T02:45:52.676Z,100.00
2023-05-14T02:48:20.137Z,100.00
2023-05-14T02:50:51.228Z,100.00
2023-05-14T02:53:18.586Z,100.00
2023-05-14T02:55:45.932Z,100.00
2023-05-14T02:58:13.292Z,100.00
2023-05-14T03:00:40.603Z,100.00
2023-05-14T03:03:08.605Z,100.00
2023-05-14T03:05:36.501Z,100.00
2023-05-14T03:08:03.918Z,100.00
2023-05-14T03:10:32.976Z,100.00
2023-05-14T03:13:00.339Z,100.00
2023-05-14T03:15:27.652Z,100.00
2023-05-14T03:17:55.293Z,100.00
2023-05-14T03:20:24.483Z,100.00
2023-05-14T03:22:53.406Z,100.00
2023-05-14T03:25:20.755Z,100.00
2023-05-14T03:27:48.045Z,100.00
2023-05-14T03:30:15.440Z,100.00
2023-05-14T03:32:43.068Z,100.00
2023-05-14T03:35:10.421Z,100.00
2023-05-14T03:37:37.668Z,100.00
2023-05-14T03:40:05.576Z,100.00
2023-05-14T03:42:32.887Z,100.00
2023-05-14T03:45:00.338Z,100.00
2023-05-14T03:47:28.029Z,100.00
2023-05-14T03:49:56.752Z,100.00
2023-05-14T03:52:24.237Z,100.00
2023-05-14T03:54:51.653Z,100.00
2023-05-14T03:57:18.905Z,100.00
2023-05-14T03:59:46.256Z,100.00
2023-05-14T04:02:13.838Z,100.00
2023-05-14T04:04:42.301Z,100.00
2023-05-14T04:07:09.723Z,100.00
2023-05-14T04:09:37.261Z,100.00
2023-05-14T04:12:04.884Z,100.00
2023-05-14T04:14:34.041Z,100.00
2023-05-14T04:17:01.467Z,100.00
2023-05-14T04:19:28.893Z,100.00
2023-05-14T04:21:57.167Z,100.00
2023-05-14T04:24:24.397Z,100.00
2023-05-14T04:26:51.684Z,100.00
2023-05-14T04:29:18.984Z,100.00
2023-05-14T04:31:46.531Z,100.00
2023-05-14T04:34:13.858Z,100.00
2023-05-14T04:36:41.366Z,100.00
2023-05-14T04:39:09.999Z,100.00
2023-05-14T04:41:37.390Z,100.00
2023-05-14T04:44:04.753Z,100.00
2023-05-14T04:46:32.071Z,100.00
2023-05-14T04:48:59.469Z,100.00
2023-05-14T04:51:26.936Z,100.00
2023-05-14T04:53:54.296Z,100.00
2023-05-14T04:56:21.722Z,100.00
2023-05-14T04:58:48.999Z,100.00
2023-05-14T05:01:16.348Z,100.00
2023-05-14T05:03:43.655Z,100.00
2023-05-14T05:06:11.254Z,100.00
2023-05-14T05:08:38.550Z,100.00
2023-05-14T05:11:05.884Z,100.00
2023-05-14T05:13:33.093Z,100.00
2023-05-14T05:16:00.594Z,100.00
2023-05-14T05:18:28.201Z,100.00
2023-05-14T05:20:56.215Z,100.00
2023-05-14T05:23:23.532Z,100.00
2023-05-14T05:25:51.131Z,100.00
2023-05-14T05:28:18.562Z,100.00
2023-05-14T05:30:45.888Z,100.00
2023-05-14T05:33:13.419Z,100.00
2023-05-14T05:35:40.898Z,100.00
2023-05-14T05:38:08.166Z,100.00
2023-05-14T05:40:35.735Z,100.00
2023-05-14T05:43:03.020Z,100.00
2023-05-14T05:45:30.442Z,100.00
2023-05-14T05:47:57.752Z,100.00
2023-05-14T05:50:25.401Z,100.00
2023-05-14T05:52:52.974Z,100.00
2023-05-14T05:55:20.469Z,100.00
2023-05-14T05:57:47.878Z,100.00
2023-05-14T06:00:15.471Z,100.00
2023-05-14T06:02:43.032Z,100.00
2023-05-14T06:05:10.968Z,100.00
2023-05-14T06:07:38.640Z,100.00
2023-05-14T06:10:06.570Z,100.00
2023-05-14T06:12:34.024Z,100.00
2023-05-14T06:15:01.356Z,100.00
2023-05-14T06:17:28.806Z,100.00
2023-05-14T06:19:56.197Z,100.00
2023-05-14T06:22:23.611Z,100.00
2023-05-14T06:24:50.982Z,100.00
2023-05-14T06:27:18.328Z,100.00
2023-05-14T06:29:45.618Z,100.00
2023-05-14T06:32:15.673Z,100.00
2023-05-14T06:34:43.294Z,100.00
2023-05-14T06:37:10.584Z,100.00
2023-05-14T06:39:38.327Z,100.00
2023-05-14T06:42:05.885Z,100.00
2023-05-14T06:44:33.255Z,100.00
2023-05-14T06:47:00.665Z,100.00
2023-05-14T06:49:27.934Z,100.00
2023-05-14T06:51:55.341Z,100.00
2023-05-14T06:54:22.599Z,100.00
2023-05-14T06:56:50.058Z,100.00
2023-05-14T06:59:17.620Z,100.00
2023-05-14T07:01:44.977Z,100.00
2023-05-14T07:04:12.564Z,100.00
2023-05-14T07:06:44.013Z,100.00
2023-05-14T07:09:11.443Z,100.00
2023-05-14T07:11:41.985Z,100.00
2023-05-14T07:14:09.422Z,100.00
2023-05-14T07:16:37.031Z,100.00
2023-05-14T07:19:07.222Z,100.00
2023-05-14T07:21:35.438Z,100.00
2023-05-14T07:24:02.885Z,100.00
2023-05-14T07:26:31.579Z,100.00
2023-05-14T07:28:59.071Z,100.00
2023-05-14T07:31:26.429Z,100.00
2023-05-14T07:33:53.718Z,100.00
2023-05-14T07:36:21.640Z,100.00
2023-05-14T07:38:51.203Z,100.00
2023-05-14T07:41:18.545Z,100.00
2023-05-14T07:44:10.741Z,100.00
2023-05-14T07:46:38.249Z,100.00
2023-05-14T07:49:41.095Z,100.00
2023-05-14T07:52:08.393Z,100.00
2023-05-14T07:54:35.640Z,100.00
2023-05-14T07:57:03.009Z,100.00
2023-05-14T07:59:30.197Z,100.00
2023-05-14T08:01:57.592Z,100.00
2023-05-14T08:04:25.141Z,100.00
2023-05-14T08:06:52.531Z,100.00
2023-05-14T08:09:19.754Z,100.00
2023-05-14T08:11:47.137Z,100.00
2023-05-14T08:14:14.386Z,100.00
2023-05-14T08:16:41.879Z,100.00
2023-05-14T08:19:13.220Z,100.00
2023-05-14T08:21:41.171Z,100.00
2023-05-14T08:24:08.542Z,100.00
2023-05-14T08:26:36.037Z,100.00
2023-05-14T08:29:03.406Z,100.00
2023-05-14T08:31:30.857Z,100.00
2023-05-14T08:33:58.226Z,100.00
2023-05-14T08:36:26.973Z,100.00
2023-05-14T08:38:54.310Z,100.00
2023-05-14T08:41:21.850Z,100.00
2023-05-14T08:43:55.116Z,100.00
2023-05-14T08:46:24.025Z,100.00
2023-05-14T08:48:55.737Z,100.00
2023-05-14T08:51:23.611Z,100.00
2023-05-14T08:53:51.358Z,100.00
2023-05-14T08:56:19.547Z,100.00
2023-05-14T08:58:46.825Z,100.00
2023-05-14T09:01:14.266Z,100.00
2023-05-14T09:03:42.078Z,100.00
2023-05-14T09:06:10.891Z,100.00
2023-05-14T09:08:38.864Z,100.00
2023-05-14T09:11:06.873Z,100.00
2023-05-14T09:13:38.865Z,100.00
2023-05-14T09:16:06.413Z,100.00
2023-05-14T09:18:35.623Z,100.00
2023-05-14T09:21:03.476Z,100.00
2023-05-14T09:23:32.559Z,100.00
2023-05-14T09:26:03.958Z,100.00
2023-05-14T09:28:31.226Z,100.00
2023-05-14T09:30:58.872Z,100.00
2023-05-14T09:33:27.825Z,100.00
2023-05-14T09:35:58.224Z,100.00
2023-05-14T09:38:32.331Z,100.00
2023-05-14T09:41:00.776Z,100.00
2023-05-14T09:43:28.442Z,100.00
2023-05-14T09:45:56.003Z,100.00
2023-05-14T09:48:24.487Z,100.00
2023-05-14T09:50:52.396Z,100.00
2023-05-14T09:53:19.866Z,100.00
2023-05-14T09:55:47.396Z,100.00
2023-05-14T09:58:15.170Z,100.00
2023-05-14T10:00:46.666Z,100.00
2023-05-14T10:03:17.208Z,100.00
2023-05-14T10:05:48.506Z,100.00
2023-05-14T10:08:31.071Z,100.00
2023-05-14T10:11:50.425Z,100.00
2023-05-14T10:14:20.892Z,100.00
2023-05-14T10:16:50.098Z,100.00
2023-05-14T10:19:18.514Z,100.00
2023-05-14T10:21:48.961Z,100.00
2023-05-14T10:24:17.218Z,100.00
2023-05-14T10:26:45.302Z,100.00
2023-05-14T10:29:12.809Z,100.00
2023-05-14T10:31:51.308Z,100.00
2023-05-14T10:34:34.712Z,100.00
2023-05-14T10:37:02.726Z,100.00
2023-05-14T10:40:06.620Z,100.00
2023-05-14T10:42:36.077Z,100.00
2023-05-14T10:45:08.353Z,100.00
2023-05-14T10:47:38.867Z,100.00
2023-05-14T10:50:36.491Z,100.00
2023-05-14T10:53:29.702Z,100.00
2023-05-14T10:55:57.238Z,100.00
2023-05-14T10:58:35.220Z,100.00
2023-05-14T11:01:33.397Z,100.00
2023-05-14T11:04:22.684Z,100.00
2023-05-14T11:06:53.894Z,100.00
2023-05-14T11:09:22.752Z,100.00
2023-05-14T11:11:50.705Z,100.00
2023-05-14T11:14:18.307Z,100.00
2023-05-14T11:16:46.076Z,100.00
2023-05-14T11:19:13.651Z,100.00
2023-05-14T11:21:41.224Z,99.86
2023-05-14T11:24:08.636Z,100.00
2023-05-14T11:26:36.185Z,100.00
2023-05-14T11:29:04.857Z,100.00
2023-05-14T11:31:32.223Z,98.79
2023-05-14T11:34:00.257Z,100.00
2023-05-14T11:36:27.675Z,100.00
2023-05-14T11:38:54.945Z,100.00
2023-05-14T11:41:23.303Z,98.61
2023-05-14T11:43:50.906Z,93.83
2023-05-14T11:46:18.846Z,96.34
2023-05-14T11:48:46.298Z,96.04
2023-05-14T11:51:13.639Z,95.73
2023-05-14T11:53:41.114Z,96.06
2023-05-14T11:56:09.798Z,97.90
2023-05-14T11:58:37.506Z,97.35
2023-05-14T12:01:05.127Z,99.22
2023-05-14T12:03:36.856Z,100.00
2023-05-14T12:06:09.236Z,97.45
2023-05-14T12:08:39.666Z,98.39
2023-05-14T12:11:09.208Z,97.83
2023-05-14T12:13:36.687Z,98.71
2023-05-14T12:16:04.291Z,99.62
2023-05-14T12:18:32.518Z,100.00
2023-05-14T12:21:04.788Z,98.15
2023-05-14T12:23:32.879Z,100.00
2023-05-14T12:26:06.152Z,100.00
2023-05-14T12:28:36.938Z,100.00
2023-05-14T12:31:05.737Z,100.00
2023-05-14T12:33:33.191Z,100.00
2023-05-14T12:38:34.256Z,100.00
2023-05-14T12:41:01.738Z,100.00
2023-05-14T12:43:31.685Z,100.00
2023-05-14T12:45:59.243Z,100.00
2023-05-14T12:48:27.989Z,100.00
2023-05-14T12:50:55.448Z,100.00
2023-05-14T12:53:22.807Z,100.00
2023-05-14T12:55:50.360Z,100.00
2023-05-14T12:58:17.716Z,100.00
2023-05-14T13:00:45.255Z,98.98
2023-05-14T13:03:12.670Z,100.00
2023-05-14T13:05:40.108Z,98.25
2023-05-14T13:08:07.555Z,100.00
2023-05-14T13:10:34.912Z,96.39
2023-05-14T13:13:02.645Z,97.40
2023-05-14T13:15:31.751Z,96.82
2023-05-14T13:17:59.278Z,95.88
2023-05-14T13:20:27.684Z,100.00
2023-05-14T13:23:03.882Z,99.70
2023-05-14T13:25:31.511Z,99.17
2023-05-14T13:27:58.901Z,97.85
2023-05-14T13:30:26.614Z,99.92
2023-05-14T13:32:54.059Z,96.68
2023-05-14T13:35:21.701Z,100.00
2023-05-14T13:37:49.145Z,98.62
2023-05-14T13:40:17.171Z,99.14
2023-05-14T13:42:44.580Z,100.00
2023-05-14T13:45:13.216Z,100.00
2023-05-14T13:47:40.666Z,100.00
2023-05-14T13:50:08.109Z,100.00
2023-05-14T13:52:35.510Z,100.00
2023-05-14T13:55:06.296Z,100.00
2023-05-14T13:57:33.640Z,100.00
2023-05-14T14:00:01.045Z,100.00
2023-05-14T14:02:34.166Z,100.00
2023-05-14T14:05:02.129Z,100.00
2023-05-14T14:07:29.713Z,100.00
2023-05-14T14:09:57.171Z,99.41
2023-05-14T14:12:24.447Z,100.00
2023-05-14T14:14:52.033Z,100.00
2023-05-14T14:17:19.557Z,100.00
2023-05-14T14:19:47.009Z,100.00
2023-05-14T14:22:17.391Z,100.00
2023-05-14T14:24:44.978Z,100.00
2023-05-14T14:27:12.304Z,99.36
2023-05-14T14:29:39.712Z,100.00
2023-05-14T14:32:07.845Z,99.24
2023-05-14T14:34:35.402Z,97.83
2023-05-14T14:37:03.016Z,97.62
2023-05-14T14:39:30.471Z,99.41
2023-05-14T14:41:57.833Z,100.00
2023-05-14T14:44:25.341Z,97.72
2023-05-14T14:46:52.753Z,96.60
2023-05-14T14:49:20.262Z,97.77
2023-05-14T14:51:47.817Z,99.00
2023-05-14T14:54:15.594Z,98.36
2023-05-14T14:56:43.507Z,98.82
2023-05-14T14:59:10.930Z,100.00
2023-05-14T15:01:38.382Z,100.00
2023-05-14T15:04:18.404Z,100.00
2023-05-14T15:06:46.194Z,100.00
2023-05-14T15:09:13.559Z,100.00
2023-05-14T15:11:41.319Z,100.00
2023-05-14T15:14:08.782Z,100.00
2023-05-14T15:16:36.260Z,100.00
2023-05-14T15:19:03.739Z,100.00
2023-05-14T15:21:32.124Z,100.00
2023-05-14T15:23:59.531Z,100.00
2023-05-14T15:26:27.103Z,100.00
2023-05-14T15:28:54.562Z,100.00
2023-05-14T15:31:22.149Z,100.00
2023-05-14T15:33:49.574Z,100.00
2023-05-14T15:36:17.091Z,100.00
2023-05-14T15:38:44.704Z,100.00
2023-05-14T15:41:12.256Z,100.00
2023-05-14T15:43:39.667Z,100.00
2023-05-14T15:46:07.086Z,100.00
2023-05-14T15:48:34.582Z,100.00
2023-05-14T15:51:03.227Z,100.00
2023-05-14T15:53:30.765Z,100.00
2023-05-14T15:55:58.447Z,100.00
2023-05-14T15:58:27.035Z,100.00
2023-05-14T16:00:56.147Z,100.00
2023-05-14T16:03:23.649Z,100.00
2023-05-14T16:05:51.202Z,100.00
2023-05-14T16:08:18.661Z,100.00
2023-05-14T16:10:46.137Z,100.00
2023-05-14T16:13:13.583Z,100.00
2023-05-14T16:15:41.058Z,100.00
2023-05-14T16:18:08.646Z,100.00
2023-05-14T16:20:36.109Z,100.00
2023-05-14T16:23:04.011Z,100.00
2023-05-14T16:25:31.646Z,100.00
2023-05-14T16:27:59.149Z,100.00
2023-05-14T16:30:26.657Z,100.00
2023-05-14T16:32:54.426Z,100.00
2023-05-14T16:35:22.039Z,100.00
2023-05-14T16:37:50.680Z,100.00
2023-05-14T16:40:19.739Z,100.00
2023-05-14T16:42:49.164Z,100.00
2023-05-14T16:45:16.946Z,100.00
2023-05-14T16:47:44.445Z,100.00
2023-05-14T16:50:11.982Z,100.00
2023-05-14T16:52:39.461Z,100.00
2023-05-14T16:55:07.151Z,100.00
2023-05-14T16:57:34.851Z,100.00
2023-05-14T17:00:06.201Z,100.00
2023-05-14T17:02:33.887Z,100.00
2023-05-14T17:05:01.402Z,100.00
2023-05-14T17:07:28.932Z,100.00
2023-05-14T17:09:56.388Z,100.00
2023-05-14T17:12:24.051Z,100.00
2023-05-14T17:14:51.609Z,100.00
2023-05-14T17:17:18.970Z,100.00
2023-05-14T17:19:46.887Z,100.00
2023-05-14T17:22:14.397Z,100.00
2023-05-14T17:24:42.521Z,100.00
2023-05-14T17:27:09.834Z,100.00
2023-05-14T17:29:37.384Z,100.00
2023-05-14T17:32:05.191Z,100.00
2023-05-14T17:34:33.027Z,100.00
2023-05-14T17:37:01.056Z,100.00
2023-05-14T17:39:29.188Z,100.00
2023-05-14T17:41:56.634Z,100.00
2023-05-14T17:44:24.090Z,100.00
2023-05-14T17:46:51.600Z,100.00
2023-05-14T17:49:19.012Z,100.00
2023-05-14T17:51:46.648Z,100.00
2023-05-14T17:54:15.110Z,100.00
2023-05-14T17:56:42.575Z,100.00
2023-05-14T17:59:09.980Z,100.00
2023-05-14T18:01:37.389Z,100.00
2023-05-14T18:04:05.010Z,100.00
2023-05-14T18:06:32.513Z,100.00
2023-05-14T18:08:59.988Z,100.00
2023-05-14T18:11:32.914Z,100.00
2023-05-14T18:14:02.147Z,100.00
2023-05-14T18:34:55.383Z,100.00
2023-05-14T18:42:36.733Z,100.00
2023-05-14T20:01:56.941Z,100.00
2023-05-14T21:40:27.359Z,100.00
2023-05-14T22:18:55.747Z,100.00
2023-05-14T23:24:02.964Z,100.00
2023-05-14T23:32:34.578Z,100.00
